createdAt,value
2019-01-25T00:00:28.176Z,53.70
2019-01-25T00:01:28.148Z,54.20
2019-01-25T00:02:28.143Z,57.90
2019-01-25T00:03:28.148Z,56.00
2019-01-25T00:04:28.114Z,52.90
2019-01-25T00:05:28.167Z,54.30
2019-01-25T00:06:28.114Z,56.10
2019-01-25T00:07:28.082Z,56.70
2019-01-25T00:08:28.082Z,54.20
2019-01-25T00:09:28.060Z,57.70
2019-01-25T00:10:28.075Z,55.10
2019-01-25T00:11:28.058Z,57.40
2019-01-25T00:12:28.032Z,56.90
2019-01-25T00:13:28.020Z,56.00
2019-01-25T00:14:28.013Z,56.00
2019-01-25T00:15:27.997Z,57.90
2019-01-25T00:16:28.011Z,58.60
2019-01-25T00:17:27.979Z,55.70
2019-01-25T00:18:27.971Z,56.80
2019-01-25T00:19:27.954Z,56.90
2019-01-25T00:20:27.958Z,57.60
2019-01-25T00:21:27.962Z,58.00
2019-01-25T00:22:27.922Z,58.00
2019-01-25T00:23:27.925Z,56.70
2019-01-25T00:24:27.913Z,56.90
2019-01-25T00:25:27.895Z,55.50
2019-01-25T00:26:27.911Z,58.80
2019-01-25T00:27:27.889Z,54.30
2019-01-25T00:28:27.866Z,53.80
2019-01-25T00:29:27.857Z,55.40
2019-01-25T00:30:27.834Z,56.40
2019-01-25T00:31:27.829Z,56.80
2019-01-25T00:32:27.844Z,56.20
2019-01-25T00:33:27.806Z,58.60
2019-01-25T00:34:27.794Z,60.30
2019-01-25T00:35:27.809Z,57.50
2019-01-25T00:36:27.776Z,57.60
2019-01-25T00:37:27.782Z,57.40
2019-01-25T00:38:27.758Z,58.20
2019-01-25T00:39:27.740Z,57.90
2019-01-25T00:40:27.726Z,57.60
2019-01-25T00:41:27.745Z,58.10
2019-01-25T00:42:27.737Z,58.20
2019-01-25T00:43:27.703Z,60.70
2019-01-25T00:44:27.682Z,57.40
2019-01-25T00:45:27.673Z,56.10
2019-01-25T00:46:27.670Z,58.60
2019-01-25T00:47:27.650Z,58.80
2019-01-25T00:48:27.660Z,59.30
2019-01-25T00:49:27.636Z,58.70
2019-01-25T00:50:27.624Z,57.30
2019-01-25T00:51:27.611Z,57.50
2019-01-25T00:52:27.599Z,56.90
2019-01-25T00:53:27.626Z,58.40
2019-01-25T00:54:27.578Z,57.60
2019-01-25T00:55:27.582Z,59.20
2019-01-25T00:56:27.569Z,59.60
2019-01-25T00:57:27.542Z,62.30
2019-01-25T00:58:27.590Z,59.10
2019-01-25T00:59:27.539Z,60.50
2019-01-25T01:00:27.510Z,59.80
2019-01-25T01:01:27.510Z,56.80
2019-01-25T01:02:27.497Z,59.20
2019-01-25T01:03:27.481Z,57.90
2019-01-25T01:04:27.484Z,59.70
2019-01-25T01:05:27.462Z,56.20
2019-01-25T01:06:27.448Z,59.50
2019-01-25T01:07:27.457Z,61.70
2019-01-25T01:08:27.425Z,59.80
2019-01-25T01:09:27.434Z,58.80
2019-01-25T01:10:27.414Z,59.20
2019-01-25T01:11:27.394Z,55.60
2019-01-25T01:12:27.385Z,57.50
2019-01-25T01:13:27.376Z,58.10
2019-01-25T01:14:27.391Z,60.90
2019-01-25T01:15:27.355Z,56.20
2019-01-25T01:16:27.347Z,56.70
2019-01-25T01:17:27.336Z,59.50
2019-01-25T01:18:27.318Z,57.40
2019-01-25T01:19:27.347Z,58.70
2019-01-25T01:20:27.318Z,58.10
2019-01-25T01:21:27.296Z,57.50
2019-01-25T01:22:27.287Z,57.70
2019-01-25T01:23:27.264Z,56.50
2019-01-25T01:24:27.273Z,57.90
2019-01-25T01:25:27.276Z,55.50
2019-01-25T01:26:27.231Z,55.10
2019-01-25T01:27:27.234Z,54.70
2019-01-25T01:28:27.215Z,56.50
2019-01-25T01:29:27.200Z,55.80
2019-01-25T01:30:27.211Z,57.00
2019-01-25T01:31:27.195Z,54.80
2019-01-25T01:32:27.174Z,58.00
2019-01-25T01:33:27.164Z,57.50
2019-01-25T01:34:27.149Z,55.60
2019-01-25T01:35:27.173Z,57.30
2019-01-25T01:36:27.137Z,56.30
2019-01-25T01:37:27.140Z,57.20
2019-01-25T01:38:27.103Z,55.30
2019-01-25T01:39:27.106Z,58.30
2019-01-25T01:40:27.097Z,60.20
2019-01-25T01:41:27.089Z,56.50
2019-01-25T01:42:27.060Z,56.60
2019-01-25T01:43:27.063Z,57.70
2019-01-25T01:44:27.042Z,57.40
2019-01-25T01:45:27.070Z,58.50
2019-01-25T01:46:27.034Z,56.70
2019-01-25T01:47:27.017Z,55.90
2019-01-25T01:48:26.995Z,55.50
2019-01-25T01:49:27.004Z,54.20
2019-01-25T01:50:26.981Z,56.90
2019-01-25T01:51:27.023Z,55.60
2019-01-25T01:52:26.954Z,57.10
2019-01-25T01:53:26.942Z,57.30
2019-01-25T01:54:26.932Z,55.70
2019-01-25T01:55:26.953Z,56.00
2019-01-25T01:56:26.912Z,53.00
2019-01-25T01:57:26.947Z,58.50
2019-01-25T01:58:26.893Z,58.20
2019-01-25T01:59:26.889Z,55.50
2019-01-25T02:00:26.878Z,55.00
2019-01-25T02:01:26.874Z,57.80
2019-01-25T02:02:26.868Z,57.90
2019-01-25T02:03:26.843Z,58.10
2019-01-25T02:04:26.826Z,58.00
2019-01-25T02:05:26.815Z,57.60
2019-01-25T02:06:26.824Z,59.50
2019-01-25T02:07:26.832Z,58.70
2019-01-25T02:08:26.787Z,57.20
2019-01-25T02:09:26.783Z,61.00
2019-01-25T02:10:29.556Z,58.40
2019-01-25T02:11:26.759Z,58.80
2019-01-25T02:12:26.747Z,59.40
2019-01-25T02:13:26.751Z,56.90
2019-01-25T02:14:26.716Z,56.50
2019-01-25T02:15:26.721Z,59.80
2019-01-25T02:16:26.699Z,56.10
2019-01-25T02:17:26.684Z,56.70
2019-01-25T02:18:26.704Z,55.90
2019-01-25T02:19:26.665Z,56.10
2019-01-25T02:20:26.667Z,56.20
2019-01-25T02:21:26.651Z,56.60
2019-01-25T02:22:26.633Z,56.90
2019-01-25T02:23:26.646Z,59.10
2019-01-25T02:24:26.636Z,56.40
2019-01-25T02:25:26.602Z,55.20
2019-01-25T02:26:26.602Z,56.70
2019-01-25T02:27:26.584Z,55.00
2019-01-25T02:28:26.569Z,56.60
2019-01-25T02:29:26.578Z,59.00
2019-01-25T02:30:26.557Z,57.00
2019-01-25T02:31:26.543Z,57.20
2019-01-25T02:32:26.531Z,55.50
2019-01-25T02:33:26.518Z,56.40
2019-01-25T02:34:26.565Z,56.10
2019-01-25T02:35:26.500Z,54.40
2019-01-25T02:36:26.498Z,57.80
2019-01-25T02:37:26.474Z,55.00
2019-01-25T02:38:26.465Z,54.20
2019-01-25T02:39:26.487Z,55.20
2019-01-25T02:40:26.463Z,55.10
2019-01-25T02:41:26.430Z,56.80
2019-01-25T02:42:26.427Z,57.80
2019-01-25T02:43:26.406Z,55.90
2019-01-25T02:44:26.413Z,56.60
2019-01-25T02:45:26.409Z,53.50
2019-01-25T02:46:26.389Z,54.10
2019-01-25T02:47:26.382Z,53.70
2019-01-25T02:48:26.390Z,53.30
2019-01-25T02:49:26.382Z,57.00
2019-01-25T02:50:26.361Z,55.00
2019-01-25T02:51:26.329Z,56.30
2019-01-25T02:52:26.313Z,54.20
2019-01-25T02:53:26.307Z,57.50
2019-01-25T02:54:26.294Z,56.40
2019-01-25T02:55:26.277Z,56.20
2019-01-25T02:56:26.294Z,54.50
2019-01-25T02:57:26.253Z,55.60
2019-01-25T02:58:26.243Z,52.70
2019-01-25T02:59:26.239Z,54.90
2019-01-25T03:00:26.229Z,54.60
2019-01-25T03:01:26.243Z,55.00
2019-01-25T03:02:26.208Z,56.10
2019-01-25T03:03:26.196Z,55.40
2019-01-25T03:04:26.180Z,56.20
2019-01-25T03:05:26.172Z,56.10
2019-01-25T03:06:26.193Z,55.50
2019-01-25T03:07:26.160Z,55.70
2019-01-25T03:08:26.136Z,55.00
2019-01-25T03:09:26.129Z,53.00
2019-01-25T03:10:29.114Z,55.90
2019-01-25T03:11:26.108Z,54.00
2019-01-25T03:12:26.131Z,56.10
2019-01-25T03:13:26.082Z,54.50
2019-01-25T03:14:26.077Z,53.90
2019-01-25T03:15:26.067Z,56.30
2019-01-25T03:16:26.053Z,52.20
2019-01-25T03:17:26.074Z,54.30
2019-01-25T03:18:26.031Z,54.40
2019-01-25T03:19:26.055Z,53.70
2019-01-25T03:20:26.012Z,56.10
2019-01-25T03:21:26.005Z,52.20
2019-01-25T03:22:26.034Z,53.80
2019-01-25T03:23:25.977Z,52.90
2019-01-25T03:24:25.967Z,55.00
2019-01-25T03:25:25.953Z,54.50
2019-01-25T03:26:25.948Z,51.80
2019-01-25T03:27:25.958Z,57.70
2019-01-25T03:28:25.941Z,53.30
2019-01-25T03:29:25.909Z,53.80
2019-01-25T03:30:25.902Z,53.20
2019-01-25T03:31:25.904Z,51.00
2019-01-25T03:32:25.883Z,53.80
2019-01-25T03:33:25.893Z,53.90
2019-01-25T03:34:25.860Z,51.90
2019-01-25T03:35:25.855Z,55.20
2019-01-25T03:36:25.839Z,53.50
2019-01-25T03:37:25.827Z,54.00
2019-01-25T03:38:25.874Z,52.20
2019-01-25T03:39:25.813Z,54.80
2019-01-25T03:40:25.812Z,53.20
2019-01-25T03:41:25.786Z,52.50
2019-01-25T03:42:25.783Z,54.00
2019-01-25T03:43:25.768Z,53.00
2019-01-25T03:44:25.774Z,53.40
2019-01-25T03:45:25.744Z,53.10
2019-01-25T03:46:25.736Z,53.50
2019-01-25T03:47:25.729Z,52.20
2019-01-25T03:48:25.712Z,54.20
2019-01-25T03:49:25.713Z,51.10
2019-01-25T03:50:25.690Z,53.20
2019-01-25T03:51:25.677Z,52.40
2019-01-25T03:52:25.696Z,53.70
2019-01-25T03:53:25.685Z,51.80
2019-01-25T03:54:25.686Z,55.10
2019-01-25T03:55:25.638Z,52.90
2019-01-25T03:56:25.628Z,52.40
2019-01-25T03:57:25.626Z,54.10
2019-01-25T03:58:25.604Z,53.50
2019-01-25T03:59:25.659Z,53.00
2019-01-25T04:00:25.611Z,53.40
2019-01-25T04:01:25.578Z,52.00
2019-01-25T04:02:25.556Z,55.40
2019-01-25T04:03:25.555Z,56.70
2019-01-25T04:04:25.539Z,51.80
2019-01-25T04:05:25.572Z,55.00
2019-01-25T04:06:25.515Z,53.20
2019-01-25T04:07:25.510Z,54.90
2019-01-25T04:08:25.495Z,53.40
2019-01-25T04:09:25.484Z,54.60
2019-01-25T04:10:25.500Z,52.50
2019-01-25T04:11:25.461Z,53.10
2019-01-25T04:12:25.453Z,55.60
2019-01-25T04:13:25.459Z,55.10
2019-01-25T04:14:25.435Z,52.70
2019-01-25T04:15:25.466Z,54.50
2019-01-25T04:16:25.413Z,50.80
2019-01-25T04:17:25.404Z,55.30
2019-01-25T04:18:25.392Z,53.20
2019-01-25T04:19:25.379Z,53.60
2019-01-25T04:20:25.426Z,55.40
2019-01-25T04:21:25.362Z,52.30
2019-01-25T04:22:25.347Z,52.80
2019-01-25T04:23:25.344Z,52.80
2019-01-25T04:24:25.324Z,52.70
2019-01-25T04:25:25.337Z,52.50
2019-01-25T04:26:25.304Z,52.80
2019-01-25T04:27:25.301Z,53.40
2019-01-25T04:28:25.278Z,54.10
2019-01-25T04:29:25.270Z,54.40
2019-01-25T04:30:25.273Z,53.20
2019-01-25T04:31:25.271Z,53.90
2019-01-25T04:32:25.234Z,53.70
2019-01-25T04:33:25.221Z,53.80
2019-01-25T04:34:25.223Z,52.30
2019-01-25T04:35:25.221Z,54.60
2019-01-25T04:36:25.216Z,54.90
2019-01-25T04:37:25.179Z,52.60
2019-01-25T04:38:25.169Z,54.10
2019-01-25T04:39:25.253Z,53.90
2019-01-25T04:40:25.171Z,53.90
2019-01-25T04:41:25.165Z,58.20
2019-01-25T04:42:25.130Z,55.30
2019-01-25T04:43:25.813Z,56.30
2019-01-25T04:44:25.105Z,56.40
2019-01-25T04:45:25.095Z,54.90
2019-01-25T04:46:25.106Z,54.20
2019-01-25T04:47:25.095Z,53.90
2019-01-25T04:48:25.073Z,54.80
2019-01-25T04:49:25.058Z,54.00
2019-01-25T04:50:25.046Z,53.90
2019-01-25T04:51:25.031Z,55.10
2019-01-25T04:52:25.043Z,55.50
2019-01-25T04:53:25.014Z,56.90
2019-01-25T04:54:24.999Z,57.20
2019-01-25T04:55:25.103Z,54.40
2019-01-25T04:56:24.978Z,56.20
2019-01-25T04:57:25.002Z,57.70
2019-01-25T04:58:24.969Z,56.00
2019-01-25T04:59:24.949Z,56.80
2019-01-25T05:00:24.942Z,57.00
2019-01-25T05:01:24.939Z,54.40
2019-01-25T05:02:24.910Z,54.70
2019-01-25T05:03:24.927Z,58.20
2019-01-25T05:04:24.896Z,52.50
2019-01-25T05:05:24.877Z,53.10
2019-01-25T05:06:24.871Z,55.40
2019-01-25T05:07:24.873Z,53.90
2019-01-25T05:08:24.871Z,53.40
2019-01-25T05:09:24.838Z,55.60
2019-01-25T05:10:24.838Z,56.50
2019-01-25T05:11:24.824Z,53.20
2019-01-25T05:12:24.804Z,55.70
2019-01-25T05:13:24.832Z,54.50
2019-01-25T05:14:24.785Z,53.00
2019-01-25T05:15:24.790Z,56.40
2019-01-25T05:16:24.765Z,53.40
2019-01-25T05:17:24.758Z,54.10
2019-01-25T05:18:24.743Z,53.30
2019-01-25T05:19:24.749Z,54.80
2019-01-25T05:20:24.727Z,55.30
2019-01-25T05:21:24.727Z,54.60
2019-01-25T05:22:24.700Z,53.90
2019-01-25T05:23:24.701Z,56.90
2019-01-25T05:24:24.743Z,53.30
2019-01-25T05:25:24.669Z,54.10
2019-01-25T05:26:24.704Z,53.60
2019-01-25T05:27:24.647Z,52.30
2019-01-25T05:28:24.640Z,56.10
2019-01-25T05:29:24.654Z,52.60
2019-01-25T05:30:24.611Z,53.90
2019-01-25T05:31:24.597Z,55.40
2019-01-25T05:32:24.648Z,56.80
2019-01-25T05:33:24.581Z,54.30
2019-01-25T05:34:24.566Z,55.40
2019-01-25T05:35:24.578Z,55.10
2019-01-25T05:36:24.544Z,56.10
2019-01-25T05:37:24.565Z,53.70
2019-01-25T05:38:24.528Z,52.70
2019-01-25T05:39:24.531Z,55.00
2019-01-25T05:40:24.535Z,54.00
2019-01-25T05:41:28.587Z,54.30
2019-01-25T05:42:24.486Z,56.50
2019-01-25T05:43:24.468Z,55.80
2019-01-25T05:44:24.465Z,56.10
2019-01-25T05:45:24.502Z,53.20
2019-01-25T05:46:24.440Z,55.90
2019-01-25T05:47:24.444Z,55.90
2019-01-25T05:48:24.424Z,54.60
2019-01-25T05:49:24.411Z,53.70
2019-01-25T05:50:24.393Z,56.00
2019-01-25T05:51:24.408Z,55.10
2019-01-25T05:52:24.386Z,54.60
2019-01-25T05:53:24.369Z,57.10
2019-01-25T05:54:24.354Z,59.00
2019-01-25T05:55:24.349Z,55.10
2019-01-25T05:56:24.362Z,53.90
2019-01-25T05:57:24.330Z,55.70
2019-01-25T05:58:24.306Z,53.70
2019-01-25T05:59:24.302Z,55.00
2019-01-25T06:00:24.291Z,55.10
2019-01-25T06:01:24.314Z,55.90
2019-01-25T06:02:24.307Z,54.10
2019-01-25T06:03:24.259Z,56.70
2019-01-25T06:04:24.244Z,55.90
2019-01-25T06:05:24.281Z,57.50
2019-01-25T06:06:24.224Z,56.40
2019-01-25T06:07:24.235Z,52.90
2019-01-25T06:08:24.205Z,55.90
2019-01-25T06:09:24.205Z,57.20
2019-01-25T06:10:24.196Z,54.60
2019-01-25T06:11:24.187Z,52.10
2019-01-25T06:12:24.177Z,57.50
2019-01-25T06:13:24.149Z,54.70
2019-01-25T06:14:24.157Z,56.30
2019-01-25T06:15:24.144Z,55.10
2019-01-25T06:16:24.115Z,55.60
2019-01-25T06:17:24.175Z,52.30
2019-01-25T06:18:24.095Z,53.40
2019-01-25T06:19:24.083Z,54.80
2019-01-25T06:20:24.084Z,55.40
2019-01-25T06:21:24.060Z,55.70
2019-01-25T06:22:24.050Z,56.70
2019-01-25T06:23:24.088Z,55.10
2019-01-25T06:24:24.031Z,52.60
2019-01-25T06:25:24.019Z,52.10
2019-01-25T06:26:24.018Z,54.70
2019-01-25T06:27:24.007Z,53.40
2019-01-25T06:28:24.022Z,53.40
2019-01-25T06:29:23.980Z,53.20
2019-01-25T06:30:23.982Z,55.40
2019-01-25T06:31:23.955Z,56.80
2019-01-25T06:32:23.955Z,56.00
2019-01-25T06:33:23.961Z,53.30
2019-01-25T06:34:23.933Z,55.20
2019-01-25T06:35:23.911Z,54.30
2019-01-25T06:36:23.913Z,53.10
2019-01-25T06:37:23.895Z,53.30
2019-01-25T06:38:23.895Z,55.70
2019-01-25T06:39:23.891Z,56.50
2019-01-25T06:40:23.861Z,56.10
2019-01-25T06:41:23.868Z,55.30
2019-01-25T06:42:23.833Z,55.30
2019-01-25T06:43:23.827Z,60.20
2019-01-25T06:44:23.841Z,57.40
2019-01-25T06:45:23.807Z,56.80
2019-01-25T06:46:23.794Z,56.60
2019-01-25T06:47:23.783Z,58.10
2019-01-25T06:48:23.774Z,55.40
2019-01-25T06:49:23.795Z,55.50
2019-01-25T06:50:23.774Z,57.30
2019-01-25T06:51:23.742Z,54.80
2019-01-25T06:52:23.727Z,57.10
2019-01-25T06:53:23.716Z,57.80
2019-01-25T06:54:23.706Z,55.00
2019-01-25T06:55:23.720Z,57.30
2019-01-25T06:56:23.717Z,55.40
2019-01-25T06:57:23.674Z,59.40
2019-01-25T06:58:23.666Z,57.40
2019-01-25T06:59:23.658Z,56.60
2019-01-25T07:00:23.671Z,57.80
2019-01-25T07:01:23.650Z,56.70
2019-01-25T07:02:23.627Z,57.40
2019-01-25T07:03:23.611Z,55.10
2019-01-25T07:04:23.639Z,55.40
2019-01-25T07:05:23.627Z,56.90
2019-01-25T07:06:23.578Z,55.10
2019-01-25T07:07:23.601Z,53.40
2019-01-25T07:08:23.562Z,56.00
2019-01-25T07:09:23.543Z,55.10
2019-01-25T07:10:23.550Z,54.90
2019-01-25T07:11:23.526Z,54.60
2019-01-25T07:12:23.520Z,57.40
2019-01-25T07:13:23.528Z,61.70
2019-01-25T07:14:23.495Z,57.40
2019-01-25T07:15:23.513Z,58.20
2019-01-25T07:16:23.480Z,57.70
2019-01-25T07:17:23.472Z,61.80
2019-01-25T07:18:23.452Z,63.00
2019-01-25T07:19:23.446Z,66.30
2019-01-25T07:20:23.440Z,65.90
2019-01-25T07:21:23.443Z,68.20
2019-01-25T07:22:23.415Z,67.70
2019-01-25T07:23:23.410Z,67.70
2019-01-25T07:24:23.382Z,65.80
2019-01-25T07:25:23.389Z,65.40
2019-01-25T07:26:23.386Z,63.70
2019-01-25T07:27:23.350Z,64.70
2019-01-25T07:28:23.355Z,63.10
2019-01-25T07:29:23.364Z,60.70
2019-01-25T07:30:23.318Z,62.10
2019-01-25T07:31:23.340Z,59.80
2019-01-25T07:32:23.311Z,60.50
2019-01-25T07:33:23.292Z,59.50
2019-01-25T07:34:23.284Z,59.60
2019-01-25T07:35:23.266Z,61.70
2019-01-25T07:36:23.277Z,61.90
2019-01-25T07:37:23.287Z,62.90
2019-01-25T07:38:23.240Z,62.00
2019-01-25T07:39:24.237Z,62.50
2019-01-25T07:40:23.215Z,61.40
2019-01-25T07:41:23.205Z,61.90
2019-01-25T07:42:23.216Z,60.70
2019-01-25T07:43:23.190Z,64.70
2019-01-25T07:44:23.183Z,61.90
2019-01-25T07:45:23.165Z,62.40
2019-01-25T07:46:23.150Z,65.40
2019-01-25T07:47:23.171Z,59.00
2019-01-25T07:48:23.162Z,61.40
2019-01-25T07:49:23.142Z,60.60
2019-01-25T07:50:23.106Z,59.60
2019-01-25T07:51:23.122Z,59.80
2019-01-25T07:52:23.086Z,61.40
2019-01-25T07:53:23.085Z,59.60
2019-01-25T07:54:23.071Z,60.40
2019-01-25T07:55:23.105Z,60.80
2019-01-25T07:56:23.068Z,58.80
2019-01-25T07:57:23.049Z,59.10
2019-01-25T07:58:23.042Z,58.40
2019-01-25T07:59:23.037Z,58.30
2019-01-25T08:00:22.998Z,62.00
2019-01-25T08:01:23.213Z,59.40
2019-01-25T08:02:23.006Z,59.40
2019-01-25T08:03:22.974Z,59.00
2019-01-25T08:04:22.964Z,59.00
2019-01-25T08:05:22.977Z,57.90
2019-01-25T08:06:23.008Z,60.20
2019-01-25T08:07:22.933Z,57.70
2019-01-25T08:08:22.955Z,61.40
2019-01-25T08:09:22.918Z,57.00
2019-01-25T08:10:22.936Z,57.30
2019-01-25T08:11:22.888Z,56.10
2019-01-25T08:12:22.878Z,58.10
2019-01-25T08:13:22.900Z,60.10
2019-01-25T08:14:22.853Z,57.10
2019-01-25T08:15:22.846Z,58.80
2019-01-25T08:16:22.836Z,58.20
2019-01-25T08:17:22.816Z,61.80
2019-01-25T08:18:22.826Z,61.60
2019-01-25T08:19:22.793Z,58.90
2019-01-25T08:20:22.801Z,59.30
2019-01-25T08:21:22.863Z,62.40
2019-01-25T08:22:22.786Z,60.20
2019-01-25T08:23:22.789Z,63.40
2019-01-25T08:24:22.752Z,60.60
2019-01-25T08:25:22.734Z,60.70
2019-01-25T08:26:22.822Z,61.80
2019-01-25T08:27:22.722Z,62.60
2019-01-25T08:28:22.773Z,63.00
2019-01-25T08:29:27.842Z,64.40
2019-01-25T08:30:23.772Z,62.10
2019-01-25T08:31:22.696Z,62.40
2019-01-25T08:32:24.050Z,61.50
2019-01-25T08:33:22.717Z,62.00
2019-01-25T08:34:22.641Z,62.70
2019-01-25T08:35:22.801Z,61.40
2019-01-25T08:36:22.626Z,61.40
2019-01-25T08:37:22.612Z,61.60
2019-01-25T08:38:22.615Z,61.30
2019-01-25T08:39:22.627Z,61.70
2019-01-25T08:40:22.601Z,63.00
2019-01-25T08:41:22.596Z,62.30
2019-01-25T08:42:22.554Z,62.70
2019-01-25T08:43:22.544Z,62.80
2019-01-25T08:44:22.581Z,62.60
2019-01-25T08:45:22.537Z,59.40
2019-01-25T08:46:22.529Z,60.10
2019-01-25T08:47:22.735Z,59.90
2019-01-25T08:48:22.489Z,60.30
2019-01-25T08:49:22.516Z,63.50
2019-01-25T08:50:22.513Z,64.30
2019-01-25T08:51:22.474Z,63.80
2019-01-25T08:52:22.469Z,68.60
2019-01-25T08:53:22.498Z,67.30
2019-01-25T08:54:22.417Z,67.30
2019-01-25T08:55:22.484Z,66.20
2019-01-25T08:56:22.509Z,71.00
2019-01-25T08:57:22.394Z,69.50
2019-01-25T08:58:22.414Z,68.50
2019-01-25T08:59:22.365Z,71.60
2019-01-25T09:00:22.356Z,67.40
2019-01-25T09:01:22.342Z,69.50
2019-01-25T09:02:22.336Z,68.00
2019-01-25T09:03:22.349Z,72.40
2019-01-25T09:04:22.316Z,68.00
2019-01-25T09:05:22.302Z,65.90
2019-01-25T09:06:22.289Z,70.00
2019-01-25T09:07:22.279Z,68.70
2019-01-25T09:08:22.329Z,69.20
2019-01-25T09:09:22.290Z,68.20
2019-01-25T09:10:22.290Z,69.30
2019-01-25T09:11:22.234Z,68.50
2019-01-25T09:12:23.385Z,67.50
2019-01-25T09:13:22.230Z,66.70
2019-01-25T09:14:22.233Z,63.60
2019-01-25T09:15:22.709Z,67.70
2019-01-25T09:16:22.181Z,64.80
2019-01-25T09:17:22.180Z,68.20
2019-01-25T09:18:22.167Z,64.30
2019-01-25T09:19:22.158Z,65.00
2019-01-25T09:20:22.161Z,67.70
2019-01-25T09:21:22.134Z,69.60
2019-01-25T09:22:22.166Z,66.50
2019-01-25T09:23:22.126Z,64.70
2019-01-25T09:24:22.114Z,64.80
2019-01-25T09:25:22.112Z,64.10
2019-01-25T09:26:22.081Z,61.40
2019-01-25T09:27:22.093Z,65.00
2019-01-25T09:28:22.052Z,67.60
2019-01-25T09:29:22.053Z,66.10
2019-01-25T09:30:22.074Z,65.90
2019-01-25T09:31:22.022Z,66.30
2019-01-25T09:32:22.022Z,66.40
2019-01-25T09:33:22.004Z,64.50
2019-01-25T09:34:22.022Z,62.40
2019-01-25T09:35:21.979Z,66.00
2019-01-25T09:36:21.969Z,62.70
2019-01-25T09:37:21.966Z,65.70
2019-01-25T09:38:21.956Z,64.60
2019-01-25T09:39:21.970Z,65.60
2019-01-25T09:40:21.930Z,64.60
2019-01-25T09:41:21.929Z,65.20
2019-01-25T09:42:21.909Z,66.50
2019-01-25T09:43:21.892Z,66.60
2019-01-25T09:44:21.889Z,63.10
2019-01-25T09:45:21.897Z,66.20
2019-01-25T09:46:21.862Z,63.10
2019-01-25T09:47:21.860Z,65.20
2019-01-25T09:48:21.849Z,66.30
2019-01-25T09:49:21.833Z,66.40
2019-01-25T09:50:21.841Z,66.10
2019-01-25T09:51:21.818Z,62.30
2019-01-25T09:52:21.808Z,61.40
2019-01-25T09:53:21.784Z,63.40
2019-01-25T09:54:21.775Z,60.70
2019-01-25T09:55:24.253Z,59.20
2019-01-25T09:56:21.765Z,61.80
2019-01-25T09:57:21.754Z,61.60
2019-01-25T09:58:21.735Z,60.40
2019-01-25T09:59:21.728Z,60.70
2019-01-25T10:00:21.739Z,59.80
2019-01-25T10:01:21.716Z,60.30
2019-01-25T10:02:21.701Z,58.10
2019-01-25T10:03:21.681Z,60.10
2019-01-25T10:04:21.670Z,59.50
2019-01-25T10:05:21.675Z,59.20
2019-01-25T10:06:21.660Z,59.90
2019-01-25T10:07:21.649Z,59.80
2019-01-25T10:08:21.637Z,60.90
2019-01-25T10:09:21.625Z,60.70
2019-01-25T10:10:21.633Z,62.30
2019-01-25T10:11:21.596Z,64.60
2019-01-25T10:12:21.587Z,62.80
2019-01-25T10:13:21.577Z,61.60
2019-01-25T10:14:21.576Z,64.50
2019-01-25T10:15:21.584Z,60.40
2019-01-25T10:16:21.548Z,60.30
2019-01-25T10:17:21.557Z,62.00
2019-01-25T10:18:24.860Z,59.40
2019-01-25T10:19:21.515Z,57.50
2019-01-25T10:20:21.500Z,57.50
2019-01-25T10:21:21.516Z,54.60
2019-01-25T10:22:21.489Z,59.30
2019-01-25T10:23:21.470Z,61.00
2019-01-25T10:24:21.478Z,60.90
2019-01-25T10:25:21.454Z,62.20
2019-01-25T10:26:21.453Z,61.00
2019-01-25T10:27:21.430Z,60.80
2019-01-25T10:28:21.413Z,58.10
2019-01-25T10:29:21.409Z,61.70
2019-01-25T10:30:21.411Z,61.30
2019-01-25T10:31:21.437Z,61.80
2019-01-25T10:32:21.369Z,60.70
2019-01-25T10:33:21.366Z,61.60
2019-01-25T10:34:21.355Z,60.50
2019-01-25T10:35:21.350Z,59.60
2019-01-25T10:36:21.353Z,61.30
2019-01-25T10:37:21.357Z,58.90
2019-01-25T10:38:21.308Z,61.40
2019-01-25T10:39:21.298Z,58.30
2019-01-25T10:40:21.286Z,60.20
2019-01-25T10:41:21.285Z,57.20
2019-01-25T10:42:21.282Z,57.50
2019-01-25T10:43:21.264Z,57.30
2019-01-25T10:44:21.244Z,58.20
2019-01-25T10:45:21.235Z,62.00
2019-01-25T10:46:21.224Z,62.50
2019-01-25T10:47:21.237Z,57.70
2019-01-25T10:48:21.206Z,60.10
2019-01-25T10:49:21.194Z,61.30
2019-01-25T10:50:21.179Z,58.50
2019-01-25T10:51:21.168Z,60.80
2019-01-25T10:52:21.162Z,60.10
2019-01-25T10:53:21.193Z,57.70
2019-01-25T10:54:21.144Z,59.90
2019-01-25T10:55:21.126Z,58.00
2019-01-25T10:56:21.118Z,57.10
2019-01-25T10:57:21.117Z,58.60
2019-01-25T10:58:21.135Z,57.90
2019-01-25T10:59:21.094Z,59.50
2019-01-25T11:00:21.080Z,59.30
2019-01-25T11:01:21.061Z,56.80
2019-01-25T11:02:21.051Z,57.50
2019-01-25T11:03:21.106Z,57.90
2019-01-25T11:04:21.092Z,55.00
2019-01-25T11:05:21.032Z,56.20
2019-01-25T11:06:21.012Z,55.30
2019-01-25T11:07:21.008Z,55.60
2019-01-25T11:08:20.991Z,55.20
2019-01-25T11:09:21.006Z,54.00
2019-01-25T11:10:21.012Z,53.90
2019-01-25T11:11:20.972Z,53.50
2019-01-25T11:12:20.949Z,53.90
2019-01-25T11:13:20.934Z,51.00
2019-01-25T11:14:20.961Z,53.30
2019-01-25T11:15:20.994Z,52.60
2019-01-25T11:16:20.912Z,52.40
2019-01-25T11:17:20.889Z,54.30
2019-01-25T11:18:20.885Z,53.50
2019-01-25T11:19:29.166Z,52.30
2019-01-25T11:20:28.473Z,54.40
2019-01-25T11:21:20.962Z,52.20
2019-01-25T11:22:20.892Z,52.90
2019-01-25T11:23:20.828Z,52.00
2019-01-25T11:24:29.270Z,55.00
2019-01-25T11:25:21.417Z,55.10
2019-01-25T11:26:21.133Z,52.40
2019-01-25T11:27:21.234Z,52.90
2019-01-25T11:28:21.018Z,52.20
2019-01-25T11:29:20.924Z,50.30
2019-01-25T11:30:21.072Z,51.10
2019-01-25T11:31:20.888Z,49.60
2019-01-25T11:32:20.934Z,51.10
2019-01-25T11:33:20.985Z,50.10
2019-01-25T11:34:21.526Z,52.90
2019-01-25T11:35:21.018Z,50.10
2019-01-25T11:36:21.044Z,49.50
2019-01-25T11:37:21.114Z,50.50
2019-01-25T11:38:20.740Z,51.70
2019-01-25T11:39:20.783Z,51.40
2019-01-25T11:40:20.778Z,54.00
2019-01-25T11:41:20.795Z,54.00
2019-01-25T11:42:20.746Z,51.40
2019-01-25T11:43:20.683Z,52.90
2019-01-25T11:44:20.798Z,51.80
2019-01-25T11:45:20.729Z,50.60
2019-01-25T11:46:20.761Z,50.70
2019-01-25T11:47:20.691Z,52.90
2019-01-25T11:48:20.681Z,50.60
2019-01-25T11:49:20.686Z,50.50
2019-01-25T11:50:20.635Z,51.10
2019-01-25T11:51:20.685Z,50.20
2019-01-25T11:52:25.004Z,48.60
2019-01-25T11:53:20.643Z,49.50
2019-01-25T11:54:20.651Z,47.40
2019-01-25T11:55:20.888Z,43.80
2019-01-25T11:56:21.161Z,44.80
2019-01-25T11:57:21.462Z,45.80
2019-01-25T11:58:21.028Z,46.70
2019-01-25T11:59:20.835Z,45.00
2019-01-25T12:00:20.821Z,44.60
2019-01-25T12:01:20.780Z,44.10
2019-01-25T12:02:21.044Z,44.50
2019-01-25T12:03:20.494Z,43.90
2019-01-25T12:04:20.461Z,46.20
2019-01-25T12:05:20.497Z,45.40
2019-01-25T12:06:20.517Z,46.40
2019-01-25T12:07:20.647Z,47.80
2019-01-25T12:08:20.482Z,45.90
2019-01-25T12:09:20.435Z,49.00
2019-01-25T12:10:20.555Z,45.90
2019-01-25T12:11:20.455Z,47.60
2019-01-25T12:12:20.495Z,48.10
2019-01-25T12:13:20.437Z,50.50
2019-01-25T12:14:20.381Z,47.80
2019-01-25T12:15:20.443Z,52.90
2019-01-25T12:16:20.376Z,51.10
2019-01-25T12:17:20.351Z,53.00
2019-01-25T12:18:20.448Z,50.50
2019-01-25T12:19:20.299Z,52.70
2019-01-25T12:20:20.321Z,48.50
2019-01-25T12:21:20.773Z,54.00
2019-01-25T12:22:20.315Z,51.00
2019-01-25T12:23:20.353Z,50.30
2019-01-25T12:24:20.293Z,52.40
2019-01-25T12:25:20.387Z,51.40
2019-01-25T12:26:20.322Z,53.20
2019-01-25T12:27:20.246Z,53.20
2019-01-25T12:28:20.338Z,53.30
2019-01-25T12:29:20.380Z,52.90
2019-01-25T12:30:20.230Z,51.50
2019-01-25T12:31:20.308Z,52.50
2019-01-25T12:32:20.282Z,52.10
2019-01-25T12:33:20.248Z,53.00
2019-01-25T12:34:20.203Z,53.00
2019-01-25T12:35:20.165Z,52.70
2019-01-25T12:36:20.136Z,51.70
2019-01-25T12:37:21.296Z,53.30
2019-01-25T12:38:20.219Z,52.50
2019-01-25T12:39:20.253Z,52.60
2019-01-25T12:40:20.087Z,53.10
2019-01-25T12:41:20.088Z,52.60
2019-01-25T12:42:20.068Z,55.40
2019-01-25T12:43:24.211Z,59.30
2019-01-25T12:44:20.075Z,54.30
2019-01-25T12:45:20.104Z,55.50
2019-01-25T12:46:20.102Z,55.80
2019-01-25T12:47:20.008Z,56.10
2019-01-25T12:48:20.055Z,55.40
2019-01-25T12:49:19.951Z,55.30
2019-01-25T12:50:20.001Z,55.80
2019-01-25T12:51:19.985Z,54.50
2019-01-25T12:52:19.961Z,57.90